sensor_id;sensor_type;location;lat;lon;timestamp;P1;durP1;ratioP1;P2;durP2;ratioP2
48006;SDS011;33771;48.180;11.400;2023-02-04T00:01:45;2.53;;;1.70;;
48006;SDS011;33771;48.180;11.400;2023-02-04T00:04:11;2.33;;;1.73;;
48006;SDS011;33771;48.180;11.400;2023-02-04T00:06:40;3.03;;;1.90;;
48006;SDS011;33771;48.180;11.400;2023-02-04T00:09:06;2.83;;;1.80;;
48006;SDS011;33771;48.180;11.400;2023-02-04T00:11:32;3.40;;;2.00;;
48006;SDS011;33771;48.180;11.400;2023-02-04T00:13:58;2.23;;;1.80;;
48006;SDS011;33771;48.180;11.400;2023-02-04T00:16:24;2.73;;;2.00;;
48006;SDS011;33771;48.180;11.400;2023-02-04T00:18:49;3.60;;;1.90;;
48006;SDS011;33771;48.180;11.400;2023-02-04T00:21:15;4.43;;;1.93;;
48006;SDS011;33771;48.180;11.400;2023-02-04T00:23:40;2.10;;;1.80;;
48006;SDS011;33771;48.180;11.400;2023-02-04T00:26:06;1.87;;;1.60;;
48006;SDS011;33771;48.180;11.400;2023-02-04T00:28:32;2.63;;;2.17;;
48006;SDS011;33771;48.180;11.400;2023-02-04T00:30:57;3.07;;;2.00;;
48006;SDS011;33771;48.180;11.400;2023-02-04T00:33:23;2.40;;;2.00;;
48006;SDS011;33771;48.180;11.400;2023-02-04T00:35:51;2.10;;;1.60;;
48006;SDS011;33771;48.180;11.400;2023-02-04T00:38:16;3.57;;;1.90;;
48006;SDS011;33771;48.180;11.400;2023-02-04T00:40:42;2.30;;;1.87;;
48006;SDS011;33771;48.180;11.400;2023-02-04T00:43:07;5.43;;;2.37;;
48006;SDS011;33771;48.180;11.400;2023-02-04T00:45:33;3.07;;;1.90;;
48006;SDS011;33771;48.180;11.400;2023-02-04T00:47:58;4.17;;;2.20;;
48006;SDS011;33771;48.180;11.400;2023-02-04T00:50:24;2.67;;;2.20;;
48006;SDS011;33771;48.180;11.400;2023-02-04T00:52:49;3.70;;;1.93;;
48006;SDS011;33771;48.180;11.400;2023-02-04T00:55:16;2.60;;;2.20;;
48006;SDS011;33771;48.180;11.400;2023-02-04T00:57:42;3.03;;;2.33;;
48006;SDS011;33771;48.180;11.400;2023-02-04T01:00:12;2.90;;;2.20;;
48006;SDS011;33771;48.180;11.400;2023-02-04T01:02:41;2.77;;;2.00;;
48006;SDS011;33771;48.180;11.400;2023-02-04T01:05:07;2.93;;;2.23;;
48006;SDS011;33771;48.180;11.400;2023-02-04T01:07:33;4.03;;;2.60;;
48006;SDS011;33771;48.180;11.400;2023-02-04T01:09:59;3.80;;;2.40;;
48006;SDS011;33771;48.180;11.400;2023-02-04T01:12:24;4.70;;;2.60;;
48006;SDS011;33771;48.180;11.400;2023-02-04T01:14:51;2.40;;;2.07;;
48006;SDS011;33771;48.180;11.400;2023-02-04T01:17:17;2.43;;;2.00;;
48006;SDS011;33771;48.180;11.400;2023-02-04T01:19:43;2.87;;;1.90;;
48006;SDS011;33771;48.180;11.400;2023-02-04T01:22:09;3.27;;;2.17;;
48006;SDS011;33771;48.180;11.400;2023-02-04T01:24:35;3.40;;;1.90;;
48006;SDS011;33771;48.180;11.400;2023-02-04T01:27:00;5.30;;;2.00;;
48006;SDS011;33771;48.180;11.400;2023-02-04T01:29:26;2.30;;;1.70;;
48006;SDS011;33771;48.180;11.400;2023-02-04T01:31:51;2.47;;;1.43;;
48006;SDS011;33771;48.180;11.400;2023-02-04T01:34:17;1.83;;;1.20;;
48006;SDS011;33771;48.180;11.400;2023-02-04T01:36:42;2.17;;;1.30;;
48006;SDS011;33771;48.180;11.400;2023-02-04T01:39:08;4.53;;;1.30;;
48006;SDS011;33771;48.180;11.400;2023-02-04T01:41:33;5.53;;;1.50;;
48006;SDS011;33771;48.180;11.400;2023-02-04T01:43:59;3.07;;;1.67;;
48006;SDS011;33771;48.180;11.400;2023-02-04T01:46:25;1.43;;;1.13;;
48006;SDS011;33771;48.180;11.400;2023-02-04T01:48:50;3.70;;;1.67;;
48006;SDS011;33771;48.180;11.400;2023-02-04T01:51:17;3.60;;;1.40;;
48006;SDS011;33771;48.180;11.400;2023-02-04T01:53:50;4.47;;;1.38;;
48006;SDS011;33771;48.180;11.400;2023-02-04T01:56:17;2.70;;;1.53;;
48006;SDS011;33771;48.180;11.400;2023-02-04T01:58:45;4.20;;;1.87;;
48006;SDS011;33771;48.180;11.400;2023-02-04T02:01:12;5.87;;;2.03;;
48006;SDS011;33771;48.180;11.400;2023-02-04T02:03:39;5.23;;;2.07;;
48006;SDS011;33771;48.180;11.400;2023-02-04T02:06:06;8.53;;;2.40;;
48006;SDS011;33771;48.180;11.400;2023-02-04T02:08:33;8.73;;;2.80;;
48006;SDS011;33771;48.180;11.400;2023-02-04T02:11:04;11.07;;;2.70;;
48006;SDS011;33771;48.180;11.400;2023-02-04T02:13:30;7.70;;;2.63;;
48006;SDS011;33771;48.180;11.400;2023-02-04T02:15:55;4.33;;;2.63;;
48006;SDS011;33771;48.180;11.400;2023-02-04T02:18:21;8.73;;;3.13;;
48006;SDS011;33771;48.180;11.400;2023-02-04T02:20:49;8.67;;;3.03;;
48006;SDS011;33771;48.180;11.400;2023-02-04T02:26:11;6.95;;;3.03;;
48006;SDS011;33771;48.180;11.400;2023-02-04T02:28:37;10.40;;;3.00;;
48006;SDS011;33771;48.180;11.400;2023-02-04T02:31:02;9.73;;;3.43;;
48006;SDS011;33771;48.180;11.400;2023-02-04T02:33:28;12.37;;;3.47;;
48006;SDS011;33771;48.180;11.400;2023-02-04T02:35:54;13.93;;;3.40;;
48006;SDS011;33771;48.180;11.400;2023-02-04T02:38:19;12.83;;;3.67;;
48006;SDS011;33771;48.180;11.400;2023-02-04T02:40:45;12.53;;;3.77;;
48006;SDS011;33771;48.180;11.400;2023-02-04T02:43:13;9.33;;;3.87;;
48006;SDS011;33771;48.180;11.400;2023-02-04T02:45:41;11.57;;;3.07;;
48006;SDS011;33771;48.180;11.400;2023-02-04T02:48:07;13.90;;;3.80;;
48006;SDS011;33771;48.180;11.400;2023-02-04T02:50:34;13.70;;;4.33;;
48006;SDS011;33771;48.180;11.400;2023-02-04T02:53:07;13.33;;;3.97;;
48006;SDS011;33771;48.180;11.400;2023-02-04T02:55:36;16.23;;;3.60;;
48006;SDS011;33771;48.180;11.400;2023-02-04T02:58:25;17.23;;;3.53;;
48006;SDS011;33771;48.180;11.400;2023-02-04T03:00:56;22.20;;;4.73;;
48006;SDS011;33771;48.180;11.400;2023-02-04T03:03:24;10.73;;;3.00;;
48006;SDS011;33771;48.180;11.400;2023-02-04T03:05:56;19.20;;;4.03;;
48006;SDS011;33771;48.180;11.400;2023-02-04T03:08:31;15.27;;;3.50;;
48006;SDS011;33771;48.180;11.400;2023-02-04T03:10:56;17.90;;;3.70;;
48006;SDS011;33771;48.180;11.400;2023-02-04T03:13:22;26.27;;;5.43;;
48006;SDS011;33771;48.180;11.400;2023-02-04T03:15:49;13.37;;;3.60;;
48006;SDS011;33771;48.180;11.400;2023-02-04T03:18:15;16.63;;;3.67;;
48006;SDS011;33771;48.180;11.400;2023-02-04T03:20:43;16.47;;;3.60;;
48006;SDS011;33771;48.180;11.400;2023-02-04T03:23:08;16.20;;;3.20;;
48006;SDS011;33771;48.180;11.400;2023-02-04T03:25:37;13.13;;;3.70;;
48006;SDS011;33771;48.180;11.400;2023-02-04T03:28:03;20.67;;;4.03;;
48006;SDS011;33771;48.180;11.400;2023-02-04T03:30:31;18.17;;;3.80;;
48006;SDS011;33771;48.180;11.400;2023-02-04T03:32:57;19.37;;;3.93;;
48006;SDS011;33771;48.180;11.400;2023-02-04T03:35:22;25.27;;;3.80;;
48006;SDS011;33771;48.180;11.400;2023-02-04T03:37:48;16.33;;;4.07;;
48006;SDS011;33771;48.180;11.400;2023-02-04T03:40:14;15.07;;;3.53;;
48006;SDS011;33771;48.180;11.400;2023-02-04T03:42:40;23.50;;;4.30;;
48006;SDS011;33771;48.180;11.400;2023-02-04T03:45:05;15.83;;;4.00;;
48006;SDS011;33771;48.180;11.400;2023-02-04T03:47:31;12.63;;;3.47;;
48006;SDS011;33771;48.180;11.400;2023-02-04T03:49:57;15.07;;;3.57;;
48006;SDS011;33771;48.180;11.400;2023-02-04T03:52:23;14.07;;;3.47;;
48006;SDS011;33771;48.180;11.400;2023-02-04T03:54:48;15.87;;;4.63;;
48006;SDS011;33771;48.180;11.400;2023-02-04T03:57:14;18.47;;;4.27;;
48006;SDS011;33771;48.180;11.400;2023-02-04T03:59:42;19.27;;;4.20;;
48006;SDS011;33771;48.180;11.400;2023-02-04T04:02:08;17.47;;;3.93;;
48006;SDS011;33771;48.180;11.400;2023-02-04T04:04:33;10.57;;;3.43;;
48006;SDS011;33771;48.180;11.400;2023-02-04T04:06:59;15.27;;;3.90;;
48006;SDS011;33771;48.180;11.400;2023-02-04T04:09:25;14.03;;;3.90;;
48006;SDS011;33771;48.180;11.400;2023-02-04T04:11:50;14.97;;;3.50;;
48006;SDS011;33771;48.180;11.400;2023-02-04T04:14:16;12.47;;;2.97;;
48006;SDS011;33771;48.180;11.400;2023-02-04T04:16:41;16.67;;;3.60;;
48006;SDS011;33771;48.180;11.400;2023-02-04T04:19:07;18.30;;;3.97;;
48006;SDS011;33771;48.180;11.400;2023-02-04T04:21:32;13.73;;;3.13;;
48006;SDS011;33771;48.180;11.400;2023-02-04T04:23:58;14.30;;;3.20;;
48006;SDS011;33771;48.180;11.400;2023-02-04T04:26:24;12.07;;;2.90;;
48006;SDS011;33771;48.180;11.400;2023-02-04T04:28:50;21.33;;;4.00;;
48006;SDS011;33771;48.180;11.400;2023-02-04T04:31:15;15.07;;;2.90;;
48006;SDS011;33771;48.180;11.400;2023-02-04T04:33:41;15.50;;;3.17;;
48006;SDS011;33771;48.180;11.400;2023-02-04T04:36:06;15.27;;;3.10;;
48006;SDS011;33771;48.180;11.400;2023-02-04T04:38:34;10.43;;;3.23;;
48006;SDS011;33771;48.180;11.400;2023-02-04T04:41:00;21.67;;;3.87;;
48006;SDS011;33771;48.180;11.400;2023-02-04T04:43:33;14.57;;;3.10;;
48006;SDS011;33771;48.180;11.400;2023-02-04T04:45:58;13.47;;;3.00;;
48006;SDS011;33771;48.180;11.400;2023-02-04T04:48:24;16.67;;;3.53;;
48006;SDS011;33771;48.180;11.400;2023-02-04T04:50:49;17.27;;;3.20;;
48006;SDS011;33771;48.180;11.400;2023-02-04T04:53:15;18.70;;;3.60;;
48006;SDS011;33771;48.180;11.400;2023-02-04T04:55:40;15.00;;;2.97;;
48006;SDS011;33771;48.180;11.400;2023-02-04T04:58:07;14.83;;;4.10;;
48006;SDS011;33771;48.180;11.400;2023-02-04T05:00:32;11.60;;;3.30;;
48006;SDS011;33771;48.180;11.400;2023-02-04T05:02:59;14.17;;;3.43;;
48006;SDS011;33771;48.180;11.400;2023-02-04T05:05:24;15.83;;;3.53;;
48006;SDS011;33771;48.180;11.400;2023-02-04T05:07:50;13.10;;;3.50;;
48006;SDS011;33771;48.180;11.400;2023-02-04T05:10:17;11.53;;;3.30;;
48006;SDS011;33771;48.180;11.400;2023-02-04T05:12:43;23.30;;;3.37;;
48006;SDS011;33771;48.180;11.400;2023-02-04T05:15:09;14.30;;;3.67;;
48006;SDS011;33771;48.180;11.400;2023-02-04T05:17:34;13.63;;;3.33;;
48006;SDS011;33771;48.180;11.400;2023-02-04T05:20:00;16.40;;;3.50;;
48006;SDS011;33771;48.180;11.400;2023-02-04T05:22:25;18.87;;;3.57;;
48006;SDS011;33771;48.180;11.400;2023-02-04T05:24:51;15.93;;;3.30;;
48006;SDS011;33771;48.180;11.400;2023-02-04T05:27:16;19.10;;;4.40;;
48006;SDS011;33771;48.180;11.400;2023-02-04T05:29:42;17.00;;;3.70;;
48006;SDS011;33771;48.180;11.400;2023-02-04T05:32:08;19.37;;;3.40;;
48006;SDS011;33771;48.180;11.400;2023-02-04T05:34:33;22.33;;;3.87;;
48006;SDS011;33771;48.180;11.400;2023-02-04T05:36:59;12.80;;;3.57;;
48006;SDS011;33771;48.180;11.400;2023-02-04T05:39:24;14.37;;;3.60;;
48006;SDS011;33771;48.180;11.400;2023-02-04T05:41:50;16.57;;;3.40;;
48006;SDS011;33771;48.180;11.400;2023-02-04T05:44:16;16.30;;;3.93;;
48006;SDS011;33771;48.180;11.400;2023-02-04T05:46:41;16.87;;;3.90;;
48006;SDS011;33771;48.180;11.400;2023-02-04T05:49:06;21.03;;;4.63;;
48006;SDS011;33771;48.180;11.400;2023-02-04T05:51:32;19.13;;;4.33;;
48006;SDS011;33771;48.180;11.400;2023-02-04T05:53:58;21.67;;;4.27;;
48006;SDS011;33771;48.180;11.400;2023-02-04T05:56:23;16.70;;;3.73;;
48006;SDS011;33771;48.180;11.400;2023-02-04T05:58:51;20.23;;;4.03;;
48006;SDS011;33771;48.180;11.400;2023-02-04T06:01:17;13.90;;;3.90;;
48006;SDS011;33771;48.180;11.400;2023-02-04T06:03:42;17.70;;;4.10;;
48006;SDS011;33771;48.180;11.400;2023-02-04T06:06:08;18.37;;;4.40;;
48006;SDS011;33771;48.180;11.400;2023-02-04T06:08:34;27.50;;;5.27;;
48006;SDS011;33771;48.180;11.400;2023-02-04T06:10:59;18.77;;;3.77;;
48006;SDS011;33771;48.180;11.400;2023-02-04T06:13:25;15.83;;;4.13;;
48006;SDS011;33771;48.180;11.400;2023-02-04T06:15:51;22.10;;;4.20;;
48006;SDS011;33771;48.180;11.400;2023-02-04T06:18:16;21.73;;;4.37;;
48006;SDS011;33771;48.180;11.400;2023-02-04T06:20:42;17.63;;;3.80;;
48006;SDS011;33771;48.180;11.400;2023-02-04T06:23:07;20.93;;;4.17;;
48006;SDS011;33771;48.180;11.400;2023-02-04T06:25:33;19.27;;;4.40;;
48006;SDS011;33771;48.180;11.400;2023-02-04T06:27:59;19.87;;;3.83;;
48006;SDS011;33771;48.180;11.400;2023-02-04T06:30:24;21.93;;;5.10;;
48006;SDS011;33771;48.180;11.400;2023-02-04T06:32:51;15.27;;;3.90;;
48006;SDS011;33771;48.180;11.400;2023-02-04T06:35:16;17.97;;;4.37;;
48006;SDS011;33771;48.180;11.400;2023-02-04T06:37:42;12.43;;;3.60;;
48006;SDS011;33771;48.180;11.400;2023-02-04T06:40:08;12.70;;;3.60;;
48006;SDS011;33771;48.180;11.400;2023-02-04T06:42:34;15.77;;;3.57;;
48006;SDS011;33771;48.180;11.400;2023-02-04T06:45:00;19.37;;;4.23;;
48006;SDS011;33771;48.180;11.400;2023-02-04T06:47:26;23.60;;;3.87;;
48006;SDS011;33771;48.180;11.400;2023-02-04T06:49:51;20.17;;;3.73;;
48006;SDS011;33771;48.180;11.400;2023-02-04T06:52:17;14.57;;;3.10;;
48006;SDS011;33771;48.180;11.400;2023-02-04T06:54:42;16.33;;;4.50;;
48006;SDS011;33771;48.180;11.400;2023-02-04T06:57:08;10.80;;;3.93;;
48006;SDS011;33771;48.180;11.400;2023-02-04T06:59:34;16.17;;;3.50;;
48006;SDS011;33771;48.180;11.400;2023-02-04T07:02:14;13.83;;;4.33;;
48006;SDS011;33771;48.180;11.400;2023-02-04T07:04:40;17.37;;;3.97;;
48006;SDS011;33771;48.180;11.400;2023-02-04T07:07:07;13.53;;;3.70;;
48006;SDS011;33771;48.180;11.400;2023-02-04T07:09:36;19.37;;;3.97;;
48006;SDS011;33771;48.180;11.400;2023-02-04T07:12:04;15.07;;;4.50;;
48006;SDS011;33771;48.180;11.400;2023-02-04T07:14:30;15.93;;;3.80;;
48006;SDS011;33771;48.180;11.400;2023-02-04T07:16:55;13.50;;;3.67;;
48006;SDS011;33771;48.180;11.400;2023-02-04T07:19:22;15.60;;;2.93;;
48006;SDS011;33771;48.180;11.400;2023-02-04T07:21:48;14.00;;;4.00;;
48006;SDS011;33771;48.180;11.400;2023-02-04T07:24:17;17.00;;;4.10;;
48006;SDS011;33771;48.180;11.400;2023-02-04T07:26:43;17.30;;;4.30;;
48006;SDS011;33771;48.180;11.400;2023-02-04T07:29:09;14.87;;;3.10;;
48006;SDS011;33771;48.180;11.400;2023-02-04T07:31:34;12.07;;;3.37;;
48006;SDS011;33771;48.180;11.400;2023-02-04T07:34:02;16.63;;;3.47;;
48006;SDS011;33771;48.180;11.400;2023-02-04T07:36:28;10.60;;;3.30;;
48006;SDS011;33771;48.180;11.400;2023-02-04T07:38:53;10.80;;;2.73;;
48006;SDS011;33771;48.180;11.400;2023-02-04T07:41:19;11.77;;;3.07;;
48006;SDS011;33771;48.180;11.400;2023-02-04T07:43:45;12.63;;;3.33;;
48006;SDS011;33771;48.180;11.400;2023-02-04T07:46:10;19.07;;;3.83;;
48006;SDS011;33771;48.180;11.400;2023-02-04T07:48:36;13.77;;;3.63;;
48006;SDS011;33771;48.180;11.400;2023-02-04T07:51:01;16.63;;;3.60;;
48006;SDS011;33771;48.180;11.400;2023-02-04T07:53:27;15.50;;;3.70;;
48006;SDS011;33771;48.180;11.400;2023-02-04T07:55:53;16.10;;;3.57;;
48006;SDS011;33771;48.180;11.400;2023-02-04T07:58:18;13.07;;;2.80;;
48006;SDS011;33771;48.180;11.400;2023-02-04T08:00:46;15.07;;;3.10;;
48006;SDS011;33771;48.180;11.400;2023-02-04T08:03:12;13.43;;;3.30;;
48006;SDS011;33771;48.180;11.400;2023-02-04T08:05:37;11.70;;;3.20;;
48006;SDS011;33771;48.180;11.400;2023-02-04T08:08:03;14.50;;;3.60;;
48006;SDS011;33771;48.180;11.400;2023-02-04T08:10:29;14.93;;;3.07;;
48006;SDS011;33771;48.180;11.400;2023-02-04T08:12:54;14.63;;;3.83;;
48006;SDS011;33771;48.180;11.400;2023-02-04T08:15:20;16.33;;;4.67;;
48006;SDS011;33771;48.180;11.400;2023-02-04T08:17:45;20.97;;;4.00;;
48006;SDS011;33771;48.180;11.400;2023-02-04T08:20:11;12.57;;;3.17;;
48006;SDS011;33771;48.180;11.400;2023-02-04T08:22:40;14.10;;;4.23;;
48006;SDS011;33771;48.180;11.400;2023-02-04T08:25:06;16.60;;;4.47;;
48006;SDS011;33771;48.180;11.400;2023-02-04T08:27:35;16.40;;;3.93;;
48006;SDS011;33771;48.180;11.400;2023-02-04T08:30:00;16.27;;;4.00;;
48006;SDS011;33771;48.180;11.400;2023-02-04T08:32:26;14.13;;;3.93;;
48006;SDS011;33771;48.180;11.400;2023-02-04T08:34:53;18.90;;;4.10;;
48006;SDS011;33771;48.180;11.400;2023-02-04T08:37:18;18.40;;;3.63;;
48006;SDS011;33771;48.180;11.400;2023-02-04T08:39:44;14.13;;;3.60;;
48006;SDS011;33771;48.180;11.400;2023-02-04T08:42:11;12.57;;;3.40;;
48006;SDS011;33771;48.180;11.400;2023-02-04T08:44:37;20.40;;;3.67;;
48006;SDS011;33771;48.180;11.400;2023-02-04T08:47:02;20.53;;;3.80;;
48006;SDS011;33771;48.180;11.400;2023-02-04T08:49:28;16.57;;;3.70;;
48006;SDS011;33771;48.180;11.400;2023-02-04T08:51:53;11.30;;;3.60;;
48006;SDS011;33771;48.180;11.400;2023-02-04T08:54:19;17.47;;;3.53;;
48006;SDS011;33771;48.180;11.400;2023-02-04T08:56:45;17.77;;;3.17;;
48006;SDS011;33771;48.180;11.400;2023-02-04T08:59:10;18.20;;;3.60;;
48006;SDS011;33771;48.180;11.400;2023-02-04T09:01:36;21.03;;;3.10;;
48006;SDS011;33771;48.180;11.400;2023-02-04T09:04:01;17.37;;;3.43;;
48006;SDS011;33771;48.180;11.400;2023-02-04T09:06:30;18.70;;;3.17;;
48006;SDS011;33771;48.180;11.400;2023-02-04T09:08:55;18.13;;;4.50;;
48006;SDS011;33771;48.180;11.400;2023-02-04T09:11:21;11.37;;;2.87;;
48006;SDS011;33771;48.180;11.400;2023-02-04T09:13:46;16.43;;;4.97;;
48006;SDS011;33771;48.180;11.400;2023-02-04T09:16:12;10.93;;;3.07;;
48006;SDS011;33771;48.180;11.400;2023-02-04T09:18:38;16.33;;;3.50;;
48006;SDS011;33771;48.180;11.400;2023-02-04T09:21:04;16.60;;;3.27;;
48006;SDS011;33771;48.180;11.400;2023-02-04T09:23:30;19.60;;;3.53;;
48006;SDS011;33771;48.180;11.400;2023-02-04T09:25:55;15.33;;;3.50;;
48006;SDS011;33771;48.180;11.400;2023-02-04T09:28:21;13.10;;;3.50;;
48006;SDS011;33771;48.180;11.400;2023-02-04T09:30:46;12.13;;;2.97;;
48006;SDS011;33771;48.180;11.400;2023-02-04T09:33:12;13.47;;;3.30;;
48006;SDS011;33771;48.180;11.400;2023-02-04T09:35:40;16.43;;;3.17;;
48006;SDS011;33771;48.180;11.400;2023-02-04T09:38:05;14.57;;;3.27;;
48006;SDS011;33771;48.180;11.400;2023-02-04T09:40:35;17.83;;;2.93;;
48006;SDS011;33771;48.180;11.400;2023-02-04T09:43:05;16.47;;;3.63;;
48006;SDS011;33771;48.180;11.400;2023-02-04T09:45:32;25.43;;;3.23;;
48006;SDS011;33771;48.180;11.400;2023-02-04T09:48:00;10.93;;;3.30;;
48006;SDS011;33771;48.180;11.400;2023-02-04T09:50:28;17.17;;;4.27;;
48006;SDS011;33771;48.180;11.400;2023-02-04T09:53:02;17.50;;;3.57;;
48006;SDS011;33771;48.180;11.400;2023-02-04T09:55:35;13.80;;;3.20;;
48006;SDS011;33771;48.180;11.400;2023-02-04T09:58:10;13.60;;;2.97;;
48006;SDS011;33771;48.180;11.400;2023-02-04T10:01:18;14.83;;;4.07;;
48006;SDS011;33771;48.180;11.400;2023-02-04T10:03:47;18.07;;;3.20;;
48006;SDS011;33771;48.180;11.400;2023-02-04T10:06:20;15.07;;;3.03;;
48006;SDS011;33771;48.180;11.400;2023-02-04T10:08:48;19.00;;;3.17;;
48006;SDS011;33771;48.180;11.400;2023-02-04T10:11:19;11.23;;;2.80;;
48006;SDS011;33771;48.180;11.400;2023-02-04T10:13:49;13.53;;;2.83;;
48006;SDS011;33771;48.180;11.400;2023-02-04T10:16:30;17.93;;;3.13;;
48006;SDS011;33771;48.180;11.400;2023-02-04T10:19:04;11.00;;;2.70;;
48006;SDS011;33771;48.180;11.400;2023-02-04T10:21:38;16.93;;;3.67;;
48006;SDS011;33771;48.180;11.400;2023-02-04T10:24:26;13.93;;;2.83;;
48006;SDS011;33771;48.180;11.400;2023-02-04T10:26:52;12.50;;;2.60;;
48006;SDS011;33771;48.180;11.400;2023-02-04T10:29:20;17.90;;;3.77;;
48006;SDS011;33771;48.180;11.400;2023-02-04T10:34:20;14.07;;;2.67;;
48006;SDS011;33771;48.180;11.400;2023-02-04T10:36:53;10.80;;;2.97;;
48006;SDS011;33771;48.180;11.400;2023-02-04T10:39:30;15.67;;;3.43;;
48006;SDS011;33771;48.180;11.400;2023-02-04T10:42:17;15.57;;;6.30;;
48006;SDS011;33771;48.180;11.400;2023-02-04T10:44:48;9.67;;;1.90;;
48006;SDS011;33771;48.180;11.400;2023-02-04T10:47:15;9.17;;;2.60;;
48006;SDS011;33771;48.180;11.400;2023-02-04T10:52:34;13.33;;;3.33;;
48006;SDS011;33771;48.180;11.400;2023-02-04T10:55:04;6.53;;;1.73;;
48006;SDS011;33771;48.180;11.400;2023-02-04T10:57:32;6.53;;;2.17;;
48006;SDS011;33771;48.180;11.400;2023-02-04T11:00:02;7.47;;;2.20;;
48006;SDS011;33771;48.180;11.400;2023-02-04T11:02:39;9.03;;;3.03;;
48006;SDS011;33771;48.180;11.400;2023-02-04T11:05:25;5.90;;;1.60;;
48006;SDS011;33771;48.180;11.400;2023-02-04T11:07:55;7.20;;;2.60;;
48006;SDS011;33771;48.180;11.400;2023-02-04T11:10:26;10.13;;;2.17;;
48006;SDS011;33771;48.180;11.400;2023-02-04T11:20:44;9.87;;;2.50;;
48006;SDS011;33771;48.180;11.400;2023-02-04T11:26:11;6.60;;;2.10;;
48006;SDS011;33771;48.180;11.400;2023-02-04T11:29:06;8.90;;;2.47;;
48006;SDS011;33771;48.180;11.400;2023-02-04T11:35:16;4.73;;;1.97;;
48006;SDS011;33771;48.180;11.400;2023-02-04T11:37:49;5.63;;;1.70;;
48006;SDS011;33771;48.180;11.400;2023-02-04T11:40:32;3.90;;;1.50;;
48006;SDS011;33771;48.180;11.400;2023-02-04T11:43:12;4.33;;;1.50;;
48006;SDS011;33771;48.180;11.400;2023-02-04T11:45:42;3.70;;;1.60;;
48006;SDS011;33771;48.180;11.400;2023-02-04T11:48:15;4.07;;;1.60;;
48006;SDS011;33771;48.180;11.400;2023-02-04T11:51:01;4.73;;;1.60;;
48006;SDS011;33771;48.180;11.400;2023-02-04T11:53:30;4.33;;;1.70;;
48006;SDS011;33771;48.180;11.400;2023-02-04T11:55:56;5.60;;;1.80;;
48006;SDS011;33771;48.180;11.400;2023-02-04T11:58:22;2.73;;;1.37;;
48006;SDS011;33771;48.180;11.400;2023-02-04T12:00:53;6.70;;;1.63;;
48006;SDS011;33771;48.180;11.400;2023-02-04T12:05:53;5.35;;;1.70;;
48006;SDS011;33771;48.180;11.400;2023-02-04T12:13:26;6.87;;;1.80;;
48006;SDS011;33771;48.180;11.400;2023-02-04T12:16:02;4.60;;;1.50;;
48006;SDS011;33771;48.180;11.400;2023-02-04T12:18:29;4.87;;;1.43;;
48006;SDS011;33771;48.180;11.400;2023-02-04T12:21:03;4.50;;;1.40;;
48006;SDS011;33771;48.180;11.400;2023-02-04T12:23:29;6.53;;;1.90;;
48006;SDS011;33771;48.180;11.400;2023-02-04T12:25:57;4.20;;;1.70;;
48006;SDS011;33771;48.180;11.400;2023-02-04T12:28:25;5.07;;;1.67;;
48006;SDS011;33771;48.180;11.400;2023-02-04T12:30:58;2.63;;;1.37;;
48006;SDS011;33771;48.180;11.400;2023-02-04T12:33:27;4.30;;;2.00;;
48006;SDS011;33771;48.180;11.400;2023-02-04T12:35:55;3.63;;;1.70;;
48006;SDS011;33771;48.180;11.400;2023-02-04T12:38:31;6.23;;;1.57;;
48006;SDS011;33771;48.180;11.400;2023-02-04T12:41:04;3.33;;;1.80;;
48006;SDS011;33771;48.180;11.400;2023-02-04T12:43:44;6.43;;;1.83;;
48006;SDS011;33771;48.180;11.400;2023-02-04T12:46:23;5.53;;;1.80;;
48006;SDS011;33771;48.180;11.400;2023-02-04T12:48:51;5.40;;;2.43;;
48006;SDS011;33771;48.180;11.400;2023-02-04T12:51:17;3.33;;;1.43;;
48006;SDS011;33771;48.180;11.400;2023-02-04T12:53:45;5.67;;;3.20;;
48006;SDS011;33771;48.180;11.400;2023-02-04T12:56:19;3.73;;;1.60;;
48006;SDS011;33771;48.180;11.400;2023-02-04T12:58:50;4.77;;;1.60;;
48006;SDS011;33771;48.180;11.400;2023-02-04T13:01:15;3.97;;;1.60;;
48006;SDS011;33771;48.180;11.400;2023-02-04T13:03:41;4.70;;;1.80;;
48006;SDS011;33771;48.180;11.400;2023-02-04T13:06:06;5.57;;;1.53;;
48006;SDS011;33771;48.180;11.400;2023-02-04T13:08:32;5.90;;;1.50;;
48006;SDS011;33771;48.180;11.400;2023-02-04T13:10:57;4.03;;;1.70;;
48006;SDS011;33771;48.180;11.400;2023-02-04T13:13:23;5.43;;;3.20;;
48006;SDS011;33771;48.180;11.400;2023-02-04T13:15:49;3.67;;;1.60;;
48006;SDS011;33771;48.180;11.400;2023-02-04T13:18:14;4.60;;;1.60;;
48006;SDS011;33771;48.180;11.400;2023-02-04T13:20:42;5.53;;;1.60;;
48006;SDS011;33771;48.180;11.400;2023-02-04T13:23:10;6.03;;;2.10;;
48006;SDS011;33771;48.180;11.400;2023-02-04T13:25:38;2.83;;;1.37;;
48006;SDS011;33771;48.180;11.400;2023-02-04T13:28:07;4.10;;;1.40;;
48006;SDS011;33771;48.180;11.400;2023-02-04T13:30:36;5.93;;;1.47;;
48006;SDS011;33771;48.180;11.400;2023-02-04T13:33:01;5.10;;;2.03;;
48006;SDS011;33771;48.180;11.400;2023-02-04T13:35:27;3.37;;;1.50;;
48006;SDS011;33771;48.180;11.400;2023-02-04T13:37:55;4.63;;;1.57;;
48006;SDS011;33771;48.180;11.400;2023-02-04T13:40:21;2.07;;;1.10;;
48006;SDS011;33771;48.180;11.400;2023-02-04T13:42:51;3.60;;;1.57;;
48006;SDS011;33771;48.180;11.400;2023-02-04T13:45:21;3.63;;;1.70;;
48006;SDS011;33771;48.180;11.400;2023-02-04T13:47:49;3.10;;;1.37;;
48006;SDS011;33771;48.180;11.400;2023-02-04T13:50:24;3.37;;;1.50;;
48006;SDS011;33771;48.180;11.400;2023-02-04T13:52:50;2.67;;;1.40;;
48006;SDS011;33771;48.180;11.400;2023-02-04T13:55:15;3.83;;;1.50;;
48006;SDS011;33771;48.180;11.400;2023-02-04T13:57:50;3.50;;;1.40;;
48006;SDS011;33771;48.180;11.400;2023-02-04T14:00:18;3.73;;;1.60;;
48006;SDS011;33771;48.180;11.400;2023-02-04T14:02:46;5.43;;;1.70;;
48006;SDS011;33771;48.180;11.400;2023-02-04T14:05:12;3.70;;;1.43;;
48006;SDS011;33771;48.180;11.400;2023-02-04T14:07:41;5.80;;;1.50;;
48006;SDS011;33771;48.180;11.400;2023-02-04T14:10:09;2.93;;;1.37;;
48006;SDS011;33771;48.180;11.400;2023-02-04T14:12:35;4.73;;;1.60;;
48006;SDS011;33771;48.180;11.400;2023-02-04T14:15:03;2.50;;;1.53;;
48006;SDS011;33771;48.180;11.400;2023-02-04T14:17:28;3.80;;;1.83;;
48006;SDS011;33771;48.180;11.400;2023-02-04T14:19:54;3.43;;;1.43;;
48006;SDS011;33771;48.180;11.400;2023-02-04T14:22:20;3.73;;;1.60;;
48006;SDS011;33771;48.180;11.400;2023-02-04T14:24:46;2.73;;;1.50;;
48006;SDS011;33771;48.180;11.400;2023-02-04T14:27:14;2.70;;;1.30;;
48006;SDS011;33771;48.180;11.400;2023-02-04T14:29:40;2.80;;;1.50;;
48006;SDS011;33771;48.180;11.400;2023-02-04T14:32:05;3.97;;;1.70;;
48006;SDS011;33771;48.180;11.400;2023-02-04T14:34:33;5.53;;;2.40;;
48006;SDS011;33771;48.180;11.400;2023-02-04T14:36:59;2.80;;;1.60;;
48006;SDS011;33771;48.180;11.400;2023-02-04T14:39:27;3.47;;;1.70;;
48006;SDS011;33771;48.180;11.400;2023-02-04T14:41:52;4.40;;;2.00;;
48006;SDS011;33771;48.180;11.400;2023-02-04T14:44:18;4.23;;;2.00;;
48006;SDS011;33771;48.180;11.400;2023-02-04T14:46:47;4.67;;;1.77;;
48006;SDS011;33771;48.180;11.400;2023-02-04T14:49:16;3.80;;;1.60;;
48006;SDS011;33771;48.180;11.400;2023-02-04T14:51:42;3.77;;;1.50;;
48006;SDS011;33771;48.180;11.400;2023-02-04T14:54:07;3.23;;;1.40;;
48006;SDS011;33771;48.180;11.400;2023-02-04T14:56:33;3.90;;;1.53;;
48006;SDS011;33771;48.180;11.400;2023-02-04T14:58:59;2.43;;;1.50;;